Honey Island, Texas
Current Conditions -  °F | °C
As of 3:15 PM on Saturday 25 Oct 2014 (Local Time) from KBMT Reporting Station
Clear Clear  
Wind Chill: 81°   Ceiling: Unl
Heat Index: 81°   Visibility: 10mi
Dew Point: 51°   Wind: 3mph
Humidity: 35%   Direction: 50°NE
Pressure: 30.11"   Gusts: NA
Location:  30.3781°N, 94.3538°W
Report Text: KBMT 252015Z AUTO 05003KT 10SM CLR 27/11 A3011 RMK AO2 T02740106
Loading
Personal Weather Stations






























Interactive Weather Map
Tropical Storm Tracking
New forecast layout! Learn more

10-Day Weather Forecast

Advertisements
Track Severe Weather on mobile